Time;durP1;ratioP1;P1;durP2;ratioP2;P2;SDS_P1;SDS_P2;PMS_P1;PMS_P2;Temp;Humidity;BMP_temperature;BMP_pressure;BME280_temperature;BME280_humidity;BME280_pressure;Samples;Min_cycle;Max_cycle;Signal;HPM_P1;HPM_P2
2023/09/19 00:01:14;;;;;;;14.30;1.80;;;;;;;;;;5072871;28;20023;-89
2023/09/19 00:03:41;;;;;;;10.15;1.30;;;;;;;;;;5066379;28;20078;-90
2023/09/19 00:06:07;;;;;;;10.57;1.58;;;;;;;;;;5071701;28;20029;-89
2023/09/19 00:08:33;;;;;;;9.48;1.42;;;;;;;;;;5076674;28;20440;-88
2023/09/19 00:11:02;;;;;;;11.18;1.30;;;;;;;;;;5072410;28;20557;-90
2023/09/19 00:13:28;;;;;;;11.05;1.42;;;;;;;;;;5076683;28;20031;-89
2023/09/19 00:15:55;;;;;;;12.60;2.15;;;;;;;;;;5064072;28;20024;-89
2023/09/19 00:18:21;;;;;;;13.93;1.73;;;;;;;;;;5070846;28;20062;-88
2023/09/19 00:20:56;;;;;;;18.30;1.90;;;;;;;;;;5068718;28;20016;-90
2023/09/19 00:23:22;;;;;;;10.55;1.55;;;;;;;;;;5076392;28;20032;-89
2023/09/19 00:25:50;;;;;;;12.77;1.70;;;;;;;;;;5076668;28;20055;-89
2023/09/19 00:28:16;;;;;;;8.98;1.20;;;;;;;;;;5076332;28;20028;-89
2023/09/19 00:30:42;;;;;;;10.18;1.65;;;;;;;;;;5072934;28;20078;-89
2023/09/19 00:33:08;;;;;;;12.70;2.97;;;;;;;;;;5076531;28;20024;-89
2023/09/19 00:35:33;;;;;;;15.57;1.48;;;;;;;;;;5078389;28;20486;-89
2023/09/19 00:37:59;;;;;;;5.35;1.00;;;;;;;;;;5065366;28;20495;-89
2023/09/19 00:40:25;;;;;;;8.50;1.45;;;;;;;;;;5073083;28;20021;-89
2023/09/19 00:42:50;;;;;;;9.27;1.40;;;;;;;;;;5065878;28;20055;-89
2023/09/19 00:45:20;;;;;;;8.98;1.15;;;;;;;;;;5069007;28;20021;-89
2023/09/19 00:47:49;;;;;;;7.93;1.20;;;;;;;;;;5061053;28;20028;-88
2023/09/19 00:50:17;;;;;;;11.40;1.60;;;;;;;;;;5064824;28;20407;-88
2023/09/19 00:52:46;;;;;;;12.32;1.58;;;;;;;;;;5077286;28;20510;-89
2023/09/19 00:55:14;;;;;;;16.02;1.55;;;;;;;;;;5078469;28;20017;-90
2023/09/19 00:57:39;;;;;;;7.35;1.70;;;;;;;;;;5066615;28;20318;-89
2023/09/19 01:00:12;;;;;;;8.80;1.60;;;;;;;;;;5075162;28;20079;-88
2023/09/19 01:02:37;;;;;;;;;;;;;;;;;;5077283;28;20145;-87
2023/09/19 01:05:04;;;;;;;8.60;1.42;;;;;;;;;;5074639;28;20306;-88
2023/09/19 01:07:30;;;;;;;10.05;1.40;;;;;;;;;;5067392;28;20032;-91
2023/09/19 01:10:05;;;;;;;10.77;1.50;;;;;;;;;;5071334;28;20423;-90
2023/09/19 01:12:49;;;;;;;7.85;1.30;;;;;;;;;;5091828;28;20025;-91
2023/09/19 01:15:24;;;;;;;7.75;1.17;;;;;;;;;;5075325;28;20029;-90
2023/09/19 01:17:59;;;;;;;7.45;1.52;;;;;;;;;;5075246;28;20020;-91
2023/09/19 01:20:43;;;;;;;11.85;1.15;;;;;;;;;;5059029;28;20116;-91
2023/09/19 01:23:16;;;;;;;9.98;1.55;;;;;;;;;;5054772;28;20033;-91
2023/09/19 01:25:58;;;;;;;9.00;1.58;;;;;;;;;;5071499;28;20024;-90
2023/09/19 01:28:26;;;;;;;11.43;2.20;;;;;;;;;;5075254;28;20101;-90
2023/09/19 01:30:54;;;;;;;9.02;1.40;;;;;;;;;;5060683;28;20695;-91
2023/09/19 01:33:20;;;;;;;11.90;1.50;;;;;;;;;;5074241;28;20020;-89
2023/09/19 01:35:45;;;;;;;9.20;1.10;;;;;;;;;;5074016;28;20013;-91
2023/09/19 01:38:11;;;;;;;10.70;1.33;;;;;;;;;;5067078;28;20031;-91
2023/09/19 01:40:45;;;;;;;11.38;1.77;;;;;;;;;;5067687;28;20502;-90
2023/09/19 01:43:30;;;;;;;7.90;1.52;;;;;;;;;;5068114;28;20047;-90
2023/09/19 01:46:08;;;;;;;10.80;1.38;;;;;;;;;;5067972;28;20118;-90
2023/09/19 01:48:58;;;;;;;7.07;1.27;;;;;;;;;;5074203;28;20016;-91
2023/09/19 01:51:34;;;;;;;7.93;1.40;;;;;;;;;;5073591;28;20016;-90
2023/09/19 01:54:09;;;;;;;11.25;1.70;;;;;;;;;;5073938;28;20513;-91
2023/09/19 01:56:51;;;;;;;8.35;1.20;;;;;;;;;;5060690;28;20032;-91
2023/09/19 01:59:21;;;;;;;16.17;2.33;;;;;;;;;;5074769;28;20024;-89
2023/09/19 02:01:47;;;;;;;7.05;1.00;;;;;;;;;;5073152;28;20035;-88
2023/09/19 02:04:13;;;;;;;8.68;1.52;;;;;;;;;;5062733;28;20049;-89
2023/09/19 02:06:42;;;;;;;8.02;1.63;;;;;;;;;;5072143;28;20028;-89
2023/09/19 02:09:08;;;;;;;10.02;0.95;;;;;;;;;;5075325;28;20024;-89
2023/09/19 02:11:38;;;;;;;10.30;1.40;;;;;;;;;;5062857;28;20364;-89
2023/09/19 02:14:04;;;;;;;10.52;1.35;;;;;;;;;;5077607;28;20084;-88
2023/09/19 02:16:30;;;;;;;7.10;1.20;;;;;;;;;;5076934;28;20024;-89
2023/09/19 02:18:55;;;;;;;10.52;1.10;;;;;;;;;;5061689;28;20025;-88
2023/09/19 02:21:21;;;;;;;9.68;1.45;;;;;;;;;;5063601;28;20052;-88
2023/09/19 02:23:51;;;;;;;8.52;1.45;;;;;;;;;;5062831;28;20085;-89
2023/09/19 02:26:18;;;;;;;7.78;1.33;;;;;;;;;;5073958;28;20029;-88
2023/09/19 02:28:45;;;;;;;10.13;1.58;;;;;;;;;;5072577;28;20016;-89
2023/09/19 02:31:11;;;;;;;15.95;2.13;;;;;;;;;;5076113;28;20027;-87
2023/09/19 02:33:37;;;;;;;8.40;1.50;;;;;;;;;;5071392;28;20044;-88
2023/09/19 02:36:04;;;;;;;6.45;1.60;;;;;;;;;;5057329;28;20467;-88
2023/09/19 02:38:30;;;;;;;12.85;1.33;;;;;;;;;;5059392;28;20363;-88
2023/09/19 02:40:55;;;;;;;8.45;2.03;;;;;;;;;;5070223;28;20460;-87
2023/09/19 02:43:21;;;;;;;8.77;1.38;;;;;;;;;;5071697;28;20027;-88
2023/09/19 02:45:49;;;;;;;7.93;1.45;;;;;;;;;;5072511;28;20019;-87
2023/09/19 02:48:15;;;;;;;14.07;1.38;;;;;;;;;;5071637;28;20353;-88
2023/09/19 02:50:44;;;;;;;9.13;1.83;;;;;;;;;;5071021;28;20101;-87
2023/09/19 02:53:10;;;;;;;7.97;1.27;;;;;;;;;;5070709;28;20077;-88
2023/09/19 02:55:38;;;;;;;8.40;1.48;;;;;;;;;;5071140;28;20019;-87
2023/09/19 02:58:05;;;;;;;10.10;1.10;;;;;;;;;;5056513;28;20385;-87
2023/09/19 03:00:30;;;;;;;11.27;1.30;;;;;;;;;;5071086;28;20493;-88
2023/09/19 03:02:59;;;;;;;12.65;1.50;;;;;;;;;;5053356;28;20082;-88
2023/09/19 03:05:26;;;;;;;11.77;1.58;;;;;;;;;;5056602;28;20418;-88
2023/09/19 03:07:51;;;;;;;6.63;0.98;;;;;;;;;;5057075;28;20039;-88
2023/09/19 03:10:18;;;;;;;14.80;1.85;;;;;;;;;;5069099;28;20013;-88
2023/09/19 03:12:43;;;;;;;7.88;1.77;;;;;;;;;;5070501;28;20456;-87
2023/09/19 03:15:09;;;;;;;5.97;1.10;;;;;;;;;;5071122;28;20017;-88
2023/09/19 03:17:35;;;;;;;10.88;1.73;;;;;;;;;;5070997;28;20024;-88
2023/09/19 03:20:01;;;;;;;14.13;1.30;;;;;;;;;;5072345;28;20112;-88
2023/09/19 03:22:26;;;;;;;8.05;1.50;;;;;;;;;;5070323;28;20036;-88
2023/09/19 03:24:52;;;;;;;11.68;1.73;;;;;;;;;;5071080;28;20021;-88
2023/09/19 03:27:18;;;;;;;13.00;2.72;;;;;;;;;;5071103;28;20016;-87
2023/09/19 03:29:47;;;;;;;15.95;1.88;;;;;;;;;;5072801;28;20032;-88
2023/09/19 03:32:12;;;;;;;10.95;1.73;;;;;;;;;;5060124;28;20463;-88
2023/09/19 03:34:43;;;;;;;9.00;1.55;;;;;;;;;;5073205;28;20032;-87
2023/09/19 03:37:11;;;;;;;10.15;1.88;;;;;;;;;;5073114;28;20060;-87
2023/09/19 03:39:36;;;;;;;6.68;1.10;;;;;;;;;;5073338;28;20016;-87
2023/09/19 03:42:03;;;;;;;11.93;1.50;;;;;;;;;;5070919;28;20486;-88
2023/09/19 03:44:29;;;;;;;12.32;2.13;;;;;;;;;;5073789;28;20410;-87
2023/09/19 03:46:56;;;;;;;7.65;1.50;;;;;;;;;;5074121;28;20020;-88
2023/09/19 03:49:21;;;;;;;13.45;1.38;;;;;;;;;;5070127;28;20024;-87
2023/09/19 03:51:47;;;;;;;8.07;1.60;;;;;;;;;;5073977;28;20012;-88
2023/09/19 03:54:12;;;;;;;11.93;1.80;;;;;;;;;;5073896;28;20104;-89
2023/09/19 03:56:38;;;;;;;6.82;1.42;;;;;;;;;;5067291;28;20425;-89
2023/09/19 03:59:03;;;;;;;11.30;1.60;;;;;;;;;;5061236;28;20111;-88
2023/09/19 04:01:30;;;;;;;10.43;1.42;;;;;;;;;;5070882;28;20376;-89
2023/09/19 04:03:56;;;;;;;20.45;2.30;;;;;;;;;;5070769;28;20016;-89
2023/09/19 04:06:22;;;;;;;11.40;1.90;;;;;;;;;;5070103;28;20021;-86
2023/09/19 04:08:48;;;;;;;9.90;1.17;;;;;;;;;;5065943;28;20005;-88
2023/09/19 04:11:13;;;;;;;11.48;1.98;;;;;;;;;;5059664;28;20112;-87
2023/09/19 04:13:38;;;;;;;15.35;1.48;;;;;;;;;;5068600;28;20110;-89
2023/09/19 04:16:04;;;;;;;9.48;1.40;;;;;;;;;;5071257;28;20027;-89
2023/09/19 04:18:32;;;;;;;8.50;1.35;;;;;;;;;;5070492;28;20021;-89
2023/09/19 04:20:58;;;;;;;11.85;1.40;;;;;;;;;;5074562;28;20099;-89
2023/09/19 04:23:23;;;;;;;10.48;1.48;;;;;;;;;;5075060;28;20108;-88
2023/09/19 04:25:48;;;;;;;11.07;1.67;;;;;;;;;;5074230;28;20052;-88
2023/09/19 04:28:15;;;;;;;8.77;1.63;;;;;;;;;;5074232;28;20016;-89
2023/09/19 04:30:40;;;;;;;9.20;1.27;;;;;;;;;;5074410;28;20022;-88
2023/09/19 04:33:06;;;;;;;15.52;1.73;;;;;;;;;;5074248;28;20028;-89
2023/09/19 04:35:32;;;;;;;18.95;2.30;;;;;;;;;;5073935;28;20021;-89
2023/09/19 04:37:57;;;;;;;13.27;1.45;;;;;;;;;;5073722;28;20440;-89
2023/09/19 04:40:24;;;;;;;14.13;1.63;;;;;;;;;;5075036;28;20021;-89
2023/09/19 04:42:56;;;;;;;11.70;1.20;;;;;;;;;;5060726;28;20087;-88
2023/09/19 04:45:22;;;;;;;10.88;1.73;;;;;;;;;;5074579;28;20032;-88
2023/09/19 04:47:47;;;;;;;8.23;1.60;;;;;;;;;;5074259;28;20380;-88
2023/09/19 04:50:13;;;;;;;9.70;1.55;;;;;;;;;;5075644;28;20017;-88
2023/09/19 04:52:42;;;;;;;9.73;2.15;;;;;;;;;;5075141;28;20047;-88
2023/09/19 04:55:09;;;;;;;19.15;2.17;;;;;;;;;;5074849;28;20561;-88
2023/09/19 04:57:36;;;;;;;13.73;1.90;;;;;;;;;;5076919;28;20088;-88
2023/09/19 05:00:02;;;;;;;13.43;2.25;;;;;;;;;;5075838;28;20055;-89
2023/09/19 05:02:30;;;;;;;10.98;1.65;;;;;;;;;;5076371;28;20051;-89
2023/09/19 05:04:59;;;;;;;6.07;1.35;;;;;;;;;;5077066;28;20028;-89
2023/09/19 05:07:26;;;;;;;10.00;1.52;;;;;;;;;;5079802;28;20107;-89
2023/09/19 05:09:51;;;;;;;15.75;1.30;;;;;;;;;;5075038;28;20721;-89
2023/09/19 05:12:19;;;;;;;12.80;1.83;;;;;;;;;;5074971;28;20495;-89
2023/09/19 05:14:44;;;;;;;12.10;1.60;;;;;;;;;;5074317;28;20444;-88
2023/09/19 05:17:10;;;;;;;7.72;1.20;;;;;;;;;;5069142;28;20028;-89
2023/09/19 05:19:38;;;;;;;4.47;1.00;;;;;;;;;;5064118;28;20062;-89
2023/09/19 05:22:04;;;;;;;9.95;1.42;;;;;;;;;;5073508;28;20021;-89
2023/09/19 05:24:30;;;;;;;15.13;1.92;;;;;;;;;;5073045;28;20494;-88
2023/09/19 05:26:56;;;;;;;9.55;1.48;;;;;;;;;;5074175;28;20048;-88
2023/09/19 05:29:22;;;;;;;10.57;1.70;;;;;;;;;;5072698;28;20537;-88
2023/09/19 05:31:50;;;;;;;8.57;1.50;;;;;;;;;;5071794;28;20017;-88
2023/09/19 05:34:15;;;;;;;15.60;2.10;;;;;;;;;;5073074;28;20310;-88
2023/09/19 05:36:40;;;;;;;11.43;1.90;;;;;;;;;;5061463;28;20086;-89
2023/09/19 05:39:09;;;;;;;11.25;1.73;;;;;;;;;;5070335;28;20025;-89
2023/09/19 05:41:36;;;;;;;12.52;1.77;;;;;;;;;;5072032;28;20032;-88
2023/09/19 05:44:06;;;;;;;8.98;1.27;;;;;;;;;;5072076;28;20119;-88
2023/09/19 05:46:32;;;;;;;11.70;1.38;;;;;;;;;;5071976;28;20025;-89
2023/09/19 05:48:57;;;;;;;11.18;2.03;;;;;;;;;;5058748;28;20072;-88
2023/09/19 05:51:23;;;;;;;10.85;1.73;;;;;;;;;;5071047;28;20404;-89
2023/09/19 05:53:48;;;;;;;8.93;1.33;;;;;;;;;;5060215;28;20021;-89
2023/09/19 05:56:14;;;;;;;17.67;1.35;;;;;;;;;;5070713;28;20023;-89
2023/09/19 05:58:44;;;;;;;15.10;1.48;;;;;;;;;;5059552;28;20024;-89
2023/09/19 06:01:09;;;;;;;14.93;1.73;;;;;;;;;;5072792;28;20067;-88
2023/09/19 06:03:35;;;;;;;16.90;2.90;;;;;;;;;;5075008;28;20009;-89
2023/09/19 06:06:01;;;;;;;8.20;1.30;;;;;;;;;;5072368;28;20021;-88
2023/09/19 06:08:27;;;;;;;10.05;1.95;;;;;;;;;;5059019;28;20024;-88
2023/09/19 06:10:53;;;;;;;12.00;2.58;;;;;;;;;;5065981;28;20017;-88
2023/09/19 06:13:19;;;;;;;12.77;1.67;;;;;;;;;;5075106;28;20017;-88
2023/09/19 06:15:46;;;;;;;7.32;1.60;;;;;;;;;;5073961;28;20028;-88
2023/09/19 06:18:17;;;;;;;12.05;1.85;;;;;;;;;;5076090;28;20029;-89
2023/09/19 06:20:45;;;;;;;11.15;1.60;;;;;;;;;;5068206;28;20044;-89
2023/09/19 06:23:11;;;;;;;7.55;1.50;;;;;;;;;;5067272;28;20108;-89
2023/09/19 06:25:36;;;;;;;10.20;1.40;;;;;;;;;;5074983;28;20039;-89
2023/09/19 06:28:05;;;;;;;7.28;1.65;;;;;;;;;;5075478;28;20012;-88
2023/09/19 06:30:30;;;;;;;10.82;1.83;;;;;;;;;;5071363;28;20032;-88
2023/09/19 06:33:00;;;;;;;10.82;2.47;;;;;;;;;;5071021;28;20020;-88
2023/09/19 06:35:26;;;;;;;7.13;1.40;;;;;;;;;;5075211;28;20391;-89
2023/09/19 06:37:52;;;;;;;11.65;1.70;;;;;;;;;;5072296;28;20025;-89
2023/09/19 06:40:20;;;;;;;14.52;1.85;;;;;;;;;;5073792;28;20450;-89
2023/09/19 06:42:47;;;;;;;7.35;1.17;;;;;;;;;;5071386;28;20012;-89
2023/09/19 06:45:13;;;;;;;10.20;1.75;;;;;;;;;;5072049;28;20028;-89
2023/09/19 06:47:42;;;;;;;10.48;1.55;;;;;;;;;;5067411;28;20013;-89
2023/09/19 06:50:12;;;;;;;9.45;1.67;;;;;;;;;;5062025;28;20387;-89
2023/09/19 06:52:38;;;;;;;12.18;1.67;;;;;;;;;;5071200;28;20022;-88
2023/09/19 06:55:05;;;;;;;17.15;1.83;;;;;;;;;;5062721;28;20115;-89
2023/09/19 06:57:31;;;;;;;5.38;1.08;;;;;;;;;;5056163;28;20033;-89
2023/09/19 06:59:56;;;;;;;11.05;1.50;;;;;;;;;;5054350;28;20031;-88
2023/09/19 07:02:21;;;;;;;20.67;1.98;;;;;;;;;;5071633;28;20024;-90
2023/09/19 07:04:47;;;;;;;8.40;1.38;;;;;;;;;;5068723;28;20028;-89
2023/09/19 07:07:13;;;;;;;9.38;1.70;;;;;;;;;;5070755;28;20016;-89
2023/09/19 07:09:39;;;;;;;11.68;1.42;;;;;;;;;;5071465;28;20113;-89
2023/09/19 07:12:04;;;;;;;10.93;1.88;;;;;;;;;;5057347;28;20052;-88
2023/09/19 07:14:30;;;;;;;15.75;1.65;;;;;;;;;;5071491;28;20020;-89
2023/09/19 07:16:55;;;;;;;9.95;1.50;;;;;;;;;;5070655;28;20103;-90
2023/09/19 07:19:21;;;;;;;15.20;2.45;;;;;;;;;;5071434;28;20063;-89
2023/09/19 07:21:50;;;;;;;10.60;1.25;;;;;;;;;;5069386;28;20042;-89
2023/09/19 07:24:16;;;;;;;11.57;1.75;;;;;;;;;;5060007;28;20379;-88
2023/09/19 07:26:41;;;;;;;14.07;1.83;;;;;;;;;;5068880;28;20120;-89
2023/09/19 07:29:09;;;;;;;13.13;1.70;;;;;;;;;;5066189;28;20123;-89
2023/09/19 07:31:37;;;;;;;17.45;1.83;;;;;;;;;;5063394;28;20024;-90
2023/09/19 07:34:05;;;;;;;14.30;2.15;;;;;;;;;;5069853;28;20441;-88
2023/09/19 07:36:32;;;;;;;9.70;1.13;;;;;;;;;;5063699;28;20074;-88
2023/09/19 07:38:57;;;;;;;6.55;1.10;;;;;;;;;;5073581;28;20080;-89
2023/09/19 07:41:23;;;;;;;9.35;1.23;;;;;;;;;;5064886;28;20068;-89
2023/09/19 07:43:49;;;;;;;8.48;1.23;;;;;;;;;;5067819;28;20024;-89
2023/09/19 07:46:14;;;;;;;6.65;1.30;;;;;;;;;;5071856;28;20066;-88
2023/09/19 07:48:40;;;;;;;10.98;1.50;;;;;;;;;;5071701;28;20020;-89
2023/09/19 07:51:06;;;;;;;9.57;1.50;;;;;;;;;;5067134;28;20067;-88
2023/09/19 07:53:34;;;;;;;8.73;1.30;;;;;;;;;;5062948;28;20024;-88
2023/09/19 07:56:06;;;;;;;11.00;1.52;;;;;;;;;;5077116;28;20236;-89
2023/09/19 07:58:33;;;;;;;9.15;1.33;;;;;;;;;;5072430;28;20091;-88
2023/09/19 08:01:09;;;;;;;8.90;1.85;;;;;;;;;;5075717;28;20378;-88
2023/09/19 08:03:34;;;;;;;12.52;1.40;;;;;;;;;;5062500;28;20012;-89
2023/09/19 08:06:00;;;;;;;9.85;1.80;;;;;;;;;;5075178;28;20030;-89
2023/09/19 08:08:26;;;;;;;11.07;2.10;;;;;;;;;;5074280;28;20577;-89
2023/09/19 08:10:57;;;;;;;16.20;2.10;;;;;;;;;;5075014;28;20012;-90
2023/09/19 08:13:25;;;;;;;11.35;1.67;;;;;;;;;;5075448;28;20325;-89
2023/09/19 08:15:53;;;;;;;8.73;1.67;;;;;;;;;;5067467;28;20017;-89
2023/09/19 08:18:23;;;;;;;7.63;1.48;;;;;;;;;;5065005;28;20183;-89
2023/09/19 08:20:50;;;;;;;7.35;1.52;;;;;;;;;;5075019;28;20017;-88
2023/09/19 08:23:18;;;;;;;16.63;1.40;;;;;;;;;;5061316;28;20321;-89
2023/09/19 08:25:43;;;;;;;8.27;1.50;;;;;;;;;;5072840;28;20445;-89
2023/09/19 08:28:11;;;;;;;15.63;1.85;;;;;;;;;;5073482;28;20028;-89
2023/09/19 08:30:37;;;;;;;8.60;1.17;;;;;;;;;;5068916;28;20017;-89
2023/09/19 08:33:04;;;;;;;10.05;1.67;;;;;;;;;;5064529;28;20073;-88
2023/09/19 08:35:30;;;;;;;10.38;1.75;;;;;;;;;;5074795;28;20103;-89
2023/09/19 08:37:55;;;;;;;11.18;1.60;;;;;;;;;;5074009;28;20036;-88
2023/09/19 08:40:21;;;;;;;9.50;1.60;;;;;;;;;;5073273;28;20023;-90
2023/09/19 08:42:47;;;;;;;12.68;1.77;;;;;;;;;;5074477;28;20020;-89
2023/09/19 08:45:12;;;;;;;9.20;1.45;;;;;;;;;;5076256;28;20383;-90
2023/09/19 08:47:43;;;;;;;7.97;1.52;;;;;;;;;;5061125;28;20036;-89
2023/09/19 08:50:15;;;;;;;11.57;1.70;;;;;;;;;;5070615;28;20017;-88
2023/09/19 08:52:40;;;;;;;;;;;;;;;;;;5071418;28;20036;-89
2023/09/19 08:55:10;;;;;;;13.13;1.80;;;;;;;;;;5056834;28;19909;-89
2023/09/19 08:57:41;;;;;;;7.95;1.30;;;;;;;;;;5060430;28;20029;-89
2023/09/19 09:00:10;;;;;;;8.27;1.50;;;;;;;;;;5073649;28;20320;-89
2023/09/19 09:02:37;;;;;;;15.63;1.80;;;;;;;;;;5076687;28;20033;-89
2023/09/19 09:05:05;;;;;;;8.48;1.42;;;;;;;;;;5074022;28;20108;-90
2023/09/19 09:07:34;;;;;;;11.10;1.35;;;;;;;;;;5075027;28;20495;-89
2023/09/19 09:10:02;;;;;;;16.40;1.77;;;;;;;;;;5079048;28;20020;-89
2023/09/19 09:12:29;;;;;;;9.45;1.50;;;;;;;;;;5078276;28;20025;-89
2023/09/19 09:14:57;;;;;;;13.80;1.42;;;;;;;;;;5075508;28;20038;-89
2023/09/19 09:17:22;;;;;;;10.45;1.30;;;;;;;;;;5074840;28;20038;-90
2023/09/19 09:19:48;;;;;;;7.28;1.40;;;;;;;;;;5074220;28;20032;-88
2023/09/19 09:22:13;;;;;;;7.00;1.63;;;;;;;;;;5072791;28;20036;-89
2023/09/19 09:24:55;;;;;;;11.77;1.52;;;;;;;;;;5074266;28;20032;-89
2023/09/19 09:27:20;;;;;;;8.98;1.92;;;;;;;;;;5073571;28;20043;-88
2023/09/19 09:29:51;;;;;;;8.18;1.27;;;;;;;;;;5073635;28;20111;-89
2023/09/19 09:32:24;;;;;;;10.93;1.42;;;;;;;;;;5072858;28;20016;-89
2023/09/19 09:34:59;;;;;;;7.10;1.30;;;;;;;;;;5074371;28;20452;-90
2023/09/19 09:37:26;;;;;;;7.35;1.55;;;;;;;;;;5055701;28;20086;-89
2023/09/19 09:40:12;;;;;;;6.25;1.02;;;;;;;;;;5053875;28;20028;-89
2023/09/19 09:42:39;;;;;;;11.43;1.30;;;;;;;;;;5064749;28;20024;-88
2023/09/19 09:45:13;;;;;;;11.13;2.13;;;;;;;;;;5073448;28;20111;-90
2023/09/19 09:47:56;;;;;;;10.50;1.75;;;;;;;;;;5072729;28;20023;-89
2023/09/19 09:50:36;;;;;;;9.13;1.92;;;;;;;;;;5073041;28;20024;-89
2023/09/19 09:53:06;;;;;;;9.60;1.70;;;;;;;;;;5060564;28;20009;-88
2023/09/19 09:55:54;;;;;;;11.85;1.35;;;;;;;;;;5072566;28;20035;-88
2023/09/19 09:58:25;;;;;;;13.45;1.25;;;;;;;;;;5070431;28;20073;-89
2023/09/19 10:00:59;;;;;;;8.65;1.50;;;;;;;;;;5061911;28;20098;-90
2023/09/19 10:03:38;;;;;;;7.40;1.70;;;;;;;;;;5070599;28;20013;-89
2023/09/19 10:06:18;;;;;;;10.90;1.50;;;;;;;;;;5072654;28;20025;-89
2023/09/19 10:09:02;;;;;;;10.18;1.77;;;;;;;;;;5068164;28;20032;-89
2023/09/19 10:11:30;;;;;;;10.07;1.25;;;;;;;;;;5067337;28;20132;-89
2023/09/19 10:13:55;;;;;;;11.00;1.30;;;;;;;;;;5086977;28;20345;-89
2023/09/19 10:16:22;;;;;;;8.35;1.23;;;;;;;;;;5066410;28;20021;-88
2023/09/19 10:18:52;;;;;;;11.60;1.23;;;;;;;;;;5074216;28;20032;-88
2023/09/19 10:21:22;;;;;;;5.57;1.20;;;;;;;;;;5075763;28;20472;-88
2023/09/19 10:23:52;;;;;;;12.15;1.45;;;;;;;;;;5074953;28;20020;-88
2023/09/19 10:26:18;;;;;;;9.68;1.10;;;;;;;;;;5056312;28;20051;-88
2023/09/19 10:28:47;;;;;;;12.13;1.77;;;;;;;;;;5069983;28;20040;-89
2023/09/19 10:31:14;;;;;;;9.02;1.42;;;;;;;;;;5065163;28;20029;-88
2023/09/19 10:33:41;;;;;;;8.55;1.50;;;;;;;;;;5070376;28;20032;-90
2023/09/19 10:36:08;;;;;;;10.45;1.63;;;;;;;;;;5072791;28;20435;-89
2023/09/19 10:38:35;;;;;;;6.63;1.20;;;;;;;;;;5072474;28;20025;-89
2023/09/19 10:41:02;;;;;;;7.93;1.08;;;;;;;;;;5071646;28;20364;-89
2023/09/19 10:43:32;;;;;;;5.40;1.15;;;;;;;;;;5071830;28;20036;-88
2023/09/19 10:46:00;;;;;;;5.75;1.00;;;;;;;;;;5068346;28;20025;-89
2023/09/19 10:48:28;;;;;;;8.75;1.00;;;;;;;;;;5062461;28;20028;-90
2023/09/19 10:51:14;;;;;;;7.28;1.00;;;;;;;;;;5071886;28;20020;-90
2023/09/19 10:53:51;;;;;;;2.80;0.77;;;;;;;;;;5072085;28;20021;-89
2023/09/19 10:56:19;;;;;;;7.15;1.10;;;;;;;;;;5071067;28;20420;-89
2023/09/19 10:58:44;;;;;;;7.55;1.08;;;;;;;;;;5072179;28;20468;-89
2023/09/19 11:01:15;;;;;;;4.63;0.98;;;;;;;;;;5071959;28;20097;-88
2023/09/19 11:03:43;;;;;;;4.78;0.90;;;;;;;;;;5071973;28;20032;-89
2023/09/19 11:06:10;;;;;;;3.17;0.98;;;;;;;;;;5071253;28;20020;-89
2023/09/19 11:08:56;;;;;;;5.95;0.98;;;;;;;;;;5071246;28;20032;-89
2023/09/19 11:11:45;;;;;;;6.43;0.65;;;;;;;;;;5067705;28;20024;-90
2023/09/19 11:14:17;;;;;;;7.50;0.98;;;;;;;;;;5093724;28;20074;-90
2023/09/19 11:17:01;;;;;;;5.85;1.00;;;;;;;;;;5058430;28;20056;-89
2023/09/19 11:19:48;;;;;;;7.28;0.60;;;;;;;;;;5071298;28;20530;-89
2023/09/19 11:22:13;;;;;;;5.72;0.93;;;;;;;;;;5070575;28;20383;-89
2023/09/19 11:24:39;;;;;;;3.95;0.70;;;;;;;;;;5070178;28;20025;-90
2023/09/19 11:27:14;;;;;;;5.30;1.10;;;;;;;;;;5072473;28;20032;-90
2023/09/19 11:29:40;;;;;;;4.68;1.20;;;;;;;;;;5070870;28;20020;-90
2023/09/19 11:32:06;;;;;;;10.25;1.00;;;;;;;;;;5069772;28;20012;-89
2023/09/19 11:34:38;;;;;;;6.50;0.95;;;;;;;;;;5058422;28;20523;-90
2023/09/19 11:37:23;;;;;;;4.78;0.65;;;;;;;;;;5070951;28;20647;-89
2023/09/19 11:40:17;;;;;;;2.35;0.55;;;;;;;;;;5071171;28;20467;-89
2023/09/19 11:42:53;;;;;;;10.10;1.00;;;;;;;;;;5071195;28;20098;-89
2023/09/19 11:45:37;;;;;;;5.28;0.60;;;;;;;;;;5070199;28;20412;-91
2023/09/19 11:48:05;;;;;;;4.05;0.77;;;;;;;;;;5059649;28;20035;-89
2023/09/19 11:50:32;;;;;;;3.50;0.77;;;;;;;;;;5075910;28;20199;-90
2023/09/19 11:52:58;;;;;;;3.05;0.73;;;;;;;;;;5066028;28;20104;-90
2023/09/19 11:55:25;;;;;;;6.82;1.00;;;;;;;;;;5062648;28;20070;-89
2023/09/19 11:57:51;;;;;;;5.38;0.93;;;;;;;;;;5057742;28;20025;-89
2023/09/19 12:00:21;;;;;;;10.00;0.60;;;;;;;;;;5057655;28;20116;-90
2023/09/19 12:02:47;;;;;;;5.20;0.63;;;;;;;;;;5071689;28;20020;-88
2023/09/19 12:05:12;;;;;;;5.68;0.90;;;;;;;;;;5071440;28;20027;-89
2023/09/19 12:07:45;;;;;;;7.03;0.82;;;;;;;;;;5063878;28;20021;-89
2023/09/19 12:10:12;;;;;;;7.68;0.90;;;;;;;;;;5067984;28;20037;-90
2023/09/19 12:12:37;;;;;;;5.88;0.70;;;;;;;;;;5060603;28;20059;-89
2023/09/19 12:15:03;;;;;;;4.20;0.80;;;;;;;;;;5072694;28;20044;-89
2023/09/19 12:17:35;;;;;;;6.70;0.88;;;;;;;;;;5070474;28;20391;-89
2023/09/19 12:20:04;;;;;;;;;;;;;;;;;;5072946;28;20020;-89
2023/09/19 12:22:39;;;;;;;3.83;0.63;;;;;;;;;;5071296;28;19911;-89
2023/09/19 12:25:10;;;;;;;3.60;0.70;;;;;;;;;;5070766;28;20016;-89
2023/09/19 12:27:43;;;;;;;2.90;0.70;;;;;;;;;;5070325;28;20025;-89
2023/09/19 12:30:09;;;;;;;3.28;0.65;;;;;;;;;;5071265;28;20110;-88
2023/09/19 12:32:35;;;;;;;2.97;0.60;;;;;;;;;;5056589;28;20452;-89
2023/09/19 12:35:07;;;;;;;5.05;0.70;;;;;;;;;;5071233;28;20378;-89
2023/09/19 12:37:35;;;;;;;4.65;0.77;;;;;;;;;;5070296;28;20016;-90
2023/09/19 12:40:15;;;;;;;2.95;0.60;;;;;;;;;;5071418;28;20396;-90
2023/09/19 12:42:41;;;;;;;8.43;0.70;;;;;;;;;;5074259;28;20380;-90
2023/09/19 12:45:09;;;;;;;3.80;1.23;;;;;;;;;;5074397;28;20023;-90
2023/09/19 12:47:35;;;;;;;1.65;0.40;;;;;;;;;;5073347;28;20451;-90
2023/09/19 12:50:06;;;;;;;3.47;0.47;;;;;;;;;;5074463;28;20021;-89
2023/09/19 12:52:37;;;;;;;3.25;0.60;;;;;;;;;;5074943;28;20328;-90
2023/09/19 12:55:04;;;;;;;3.38;0.50;;;;;;;;;;5074407;28;20016;-89
2023/09/19 12:57:32;;;;;;;3.78;0.85;;;;;;;;;;5077314;28;20043;-90
2023/09/19 13:00:00;;;;;;;4.15;0.98;;;;;;;;;;5072377;28;20016;-89
2023/09/19 13:02:25;;;;;;;4.90;1.08;;;;;;;;;;5074392;28;20352;-89
2023/09/19 13:04:54;;;;;;;4.93;0.80;;;;;;;;;;5059763;28;20025;-89
2023/09/19 13:07:38;;;;;;;3.13;0.60;;;;;;;;;;5075086;28;20467;-90
2023/09/19 13:10:04;;;;;;;4.80;0.57;;;;;;;;;;5075216;28;20035;-88
2023/09/19 13:12:37;;;;;;;2.70;0.70;;;;;;;;;;5075927;28;20246;-90
2023/09/19 13:15:13;;;;;;;2.88;0.60;;;;;;;;;;5077728;28;20016;-88
2023/09/19 13:17:46;;;;;;;3.22;0.60;;;;;;;;;;5076953;28;20016;-88
2023/09/19 13:20:24;;;;;;;8.88;0.70;;;;;;;;;;5074943;28;20384;-88
2023/09/19 13:22:53;;;;;;;4.15;0.50;;;;;;;;;;5075246;28;20021;-89
2023/09/19 13:25:19;;;;;;;5.35;0.80;;;;;;;;;;5074953;28;20086;-89
2023/09/19 13:27:55;;;;;;;1.75;0.70;;;;;;;;;;5074219;28;20020;-88
2023/09/19 13:30:21;;;;;;;2.22;0.60;;;;;;;;;;5061199;28;20029;-89
2023/09/19 13:32:47;;;;;;;1.80;0.50;;;;;;;;;;5074780;28;20008;-88
2023/09/19 13:35:14;;;;;;;4.20;0.68;;;;;;;;;;5074150;28;20056;-90
2023/09/19 13:37:43;;;;;;;4.60;0.50;;;;;;;;;;5074121;28;20017;-90
2023/09/19 13:40:08;;;;;;;1.85;0.50;;;;;;;;;;5074772;28;20033;-89
2023/09/19 13:42:34;;;;;;;3.97;0.50;;;;;;;;;;5073796;28;20023;-89
2023/09/19 13:44:59;;;;;;;2.78;0.40;;;;;;;;;;5063834;28;20017;-89
2023/09/19 13:47:26;;;;;;;2.95;0.47;;;;;;;;;;5055214;28;20020;-89
2023/09/19 13:49:52;;;;;;;3.63;0.57;;;;;;;;;;5065474;28;20024;-88
2023/09/19 13:52:23;;;;;;;2.85;0.73;;;;;;;;;;5067348;28;20337;-89
2023/09/19 13:54:48;;;;;;;1.85;0.55;;;;;;;;;;5073358;28;20023;-90
2023/09/19 13:57:14;;;;;;;2.92;0.63;;;;;;;;;;5064953;28;20384;-88
2023/09/19 13:59:39;;;;;;;3.58;0.70;;;;;;;;;;5055349;28;20112;-88
2023/09/19 14:02:06;;;;;;;2.22;0.55;;;;;;;;;;5073067;28;20057;-89
2023/09/19 14:04:34;;;;;;;10.88;0.50;;;;;;;;;;5072369;28;20024;-89
2023/09/19 14:07:00;;;;;;;3.67;0.88;;;;;;;;;;5072645;28;20020;-88
2023/09/19 14:09:25;;;;;;;1.63;0.50;;;;;;;;;;5072581;28;20414;-88
2023/09/19 14:11:52;;;;;;;7.47;1.45;;;;;;;;;;5073316;28;20017;-89
2023/09/19 14:14:18;;;;;;;5.05;0.50;;;;;;;;;;5072454;28;20103;-89
2023/09/19 14:16:43;;;;;;;3.40;0.47;;;;;;;;;;5072956;28;20020;-90
2023/09/19 14:19:09;;;;;;;4.88;0.60;;;;;;;;;;5072697;28;20134;-89
2023/09/19 14:21:36;;;;;;;4.47;0.60;;;;;;;;;;5074117;28;20024;-89
2023/09/19 14:24:02;;;;;;;5.07;0.60;;;;;;;;;;5073669;28;20074;-89
2023/09/19 14:26:27;;;;;;;5.35;1.00;;;;;;;;;;5073241;28;20029;-88
2023/09/19 14:28:53;;;;;;;1.75;0.50;;;;;;;;;;5072204;28;20111;-88
2023/09/19 14:31:18;;;;;;;5.22;0.80;;;;;;;;;;5063134;28;20040;-89
2023/09/19 14:33:46;;;;;;;2.38;0.65;;;;;;;;;;5053837;28;20017;-90
2023/09/19 14:36:13;;;;;;;3.40;0.60;;;;;;;;;;5073810;28;20440;-90
2023/09/19 14:38:38;;;;;;;4.07;0.63;;;;;;;;;;5075023;28;20020;-89
2023/09/19 14:41:07;;;;;;;1.83;0.77;;;;;;;;;;5076728;28;20341;-90
2023/09/19 14:43:35;;;;;;;5.80;0.85;;;;;;;;;;5076741;28;20024;-89
2023/09/19 14:46:10;;;;;;;4.10;0.60;;;;;;;;;;5074100;28;20115;-88